Terminal Aerodrome Forecast
Issued by NWS

Home | Current Version | Previous Version | Text Only | Print | Product List | Glossary Off
Versions: 1 2 3 4 5 6 7 8 9 10 11 12

000
FTUS43 KMPX 300520
TAFAXN
TAF
KAXN 300520Z 3006/3106 35008KT P6SM BKN250
     FM301500 02010KT P6SM FEW040
     FM310400 09005KT P6SM SKC=

USA.gov is the U.S. government's official web portal to all federal, state and local government web resources and services.